Time;durP1;ratioP1;P1;durP2;ratioP2;P2;SDS_P1;SDS_P2;PMS_P1;PMS_P2;Temp;Humidity;BMP_temperature;BMP_pressure;BME280_temperature;BME280_humidity;BME280_pressure;Samples;Min_cycle;Max_cycle;Signal;HPM_P1;HPM_P2
2023/05/17 00:01:41;;;;;;;5.03;4.43;;;;;;;16.09;67.22;94304.44;5022565;28;20190;-68
2023/05/17 00:04:07;;;;;;;4.45;3.58;;;;;;;16.05;67.62;94303.22;5024132;28;20233;-68
2023/05/17 00:06:33;;;;;;;6.25;4.15;;;;;;;16.06;67.27;94315.44;5026240;28;20229;-68
2023/05/17 00:08:59;;;;;;;4.53;3.60;;;;;;;16.06;67.10;94318.09;5023437;28;20333;-67
2023/05/17 00:11:24;;;;;;;5.82;3.60;;;;;;;16.05;66.92;94314.63;5021724;28;20269;-68
2023/05/17 00:13:50;;;;;;;6.35;3.92;;;;;;;16.03;66.84;94307.91;5007236;28;20190;-68
2023/05/17 00:16:15;;;;;;;6.93;3.75;;;;;;;16.00;66.07;94308.31;5026713;28;20192;-68
2023/05/17 00:18:41;;;;;;;4.78;3.42;;;;;;;15.98;66.04;94299.72;5025397;28;20260;-68
2023/05/17 00:21:06;;;;;;;4.82;4.03;;;;;;;15.81;66.88;94309.91;5018743;28;20226;-68
2023/05/17 00:23:32;;;;;;;4.55;3.75;;;;;;;15.71;66.88;94297.03;5021908;28;20256;-68
2023/05/17 00:25:57;;;;;;;9.23;4.10;;;;;;;15.73;66.92;94291.53;5041671;28;20217;-69
2023/05/17 00:28:22;;;;;;;4.13;3.42;;;;;;;15.81;66.84;94308.06;5022552;28;20205;-68
2023/05/17 00:30:48;;;;;;;4.35;3.55;;;;;;;15.81;66.87;94305.41;5025240;28;20226;-69
2023/05/17 00:33:13;;;;;;;7.38;3.97;;;;;;;15.73;67.06;94313.56;5038008;28;20231;-69
2023/05/17 00:35:39;;;;;;;7.63;4.00;;;;;;;15.72;66.69;94317.25;5026781;28;20241;-70
2023/05/17 00:38:04;;;;;;;4.28;3.53;;;;;;;15.66;67.29;94315.34;5024391;28;20229;-69
2023/05/17 00:40:30;;;;;;;5.22;3.47;;;;;;;15.66;67.46;94310.03;5039904;28;20195;-69
2023/05/17 00:42:55;;;;;;;4.15;3.60;;;;;;;15.69;67.24;94307.03;5023422;28;20316;-70
2023/05/17 00:45:21;;;;;;;5.32;3.80;;;;;;;15.69;67.67;94322.94;5022674;28;20221;-69
2023/05/17 00:47:46;;;;;;;7.55;4.10;;;;;;;15.63;67.65;94315.75;5031291;28;20287;-69
2023/05/17 00:50:12;;;;;;;7.05;4.03;;;;;;;15.63;67.52;94318.41;5029596;28;20651;-68
2023/05/17 00:52:38;;;;;;;4.15;3.35;;;;;;;15.60;67.73;94313.50;5027582;28;20186;-69
2023/05/17 00:55:03;;;;;;;4.60;3.65;;;;;;;15.59;67.54;94322.47;5023866;28;20270;-69
2023/05/17 00:57:30;;;;;;;5.25;4.07;;;;;;;15.54;67.79;94319.59;5024133;28;20217;-68
2023/05/17 00:59:56;;;;;;;5.03;4.22;;;;;;;15.54;67.68;94319.59;5028653;28;20293;-68
2023/05/17 01:02:22;;;;;;;6.25;3.72;;;;;;;15.58;67.34;94320.81;5029183;28;20289;-68
2023/05/17 01:04:48;;;;;;;3.65;3.15;;;;;;;15.51;67.51;94320.81;5027077;28;20259;-68
2023/05/17 01:07:15;;;;;;;5.45;3.70;;;;;;;15.53;67.47;94325.91;5026435;28;20268;-68
2023/05/17 01:09:41;;;;;;;6.15;3.63;;;;;;;15.47;67.63;94324.06;5016702;28;20222;-69
2023/05/17 01:12:26;;;;;;;4.32;3.70;;;;;;;15.41;67.81;94318.53;5020382;28;20243;-69
2023/05/17 01:15:13;;;;;;;3.53;3.10;;;;;;;15.41;67.88;94312.41;5026574;28;20220;-68
2023/05/17 01:18:07;;;;;;;4.18;3.78;;;;;;;15.42;67.83;94311.41;5022370;28;20209;-68
2023/05/17 01:20:40;;;;;;;5.60;3.88;;;;;;;15.37;67.91;94309.38;5025052;28;20225;-68
2023/05/17 01:23:05;;;;;;;4.45;3.80;;;;;;;15.31;68.42;94312.78;5020328;28;20249;-68
2023/05/17 01:25:46;;;;;;;4.88;4.07;;;;;;;15.27;68.32;94322.16;5017444;28;20212;-68
2023/05/17 01:28:13;;;;;;;6.60;4.07;;;;;;;15.24;68.17;94327.03;5044415;28;20691;-68
2023/05/17 01:30:40;;;;;;;5.28;4.28;;;;;;;14.95;68.65;94315.69;5028977;28;20267;-68
2023/05/17 01:33:06;;;;;;;5.68;4.88;;;;;;;14.96;68.88;94319.97;5024253;28;20221;-69
2023/05/17 01:35:31;;;;;;;5.28;4.35;;;;;;;15.03;68.50;94314.72;5029697;28;20572;-69
2023/05/17 01:37:57;;;;;;;5.00;4.47;;;;;;;15.10;68.40;94311.09;5030584;28;20238;-69
2023/05/17 01:40:23;;;;;;;5.45;4.05;;;;;;;15.14;67.87;94314.16;5027322;28;20231;-68
2023/05/17 01:43:24;;;;;;;6.88;4.55;;;;;;;15.16;67.48;94312.94;5008240;28;20283;-68
2023/05/17 01:46:03;;;;;;;5.13;4.28;;;;;;;15.09;67.45;94316.56;5024508;28;20269;-68
2023/05/17 01:48:38;;;;;;;4.47;4.03;;;;;;;15.06;66.98;94304.53;5019489;28;20313;-68
2023/05/17 01:51:08;;;;;;;6.00;4.38;;;;;;;14.96;66.71;94312.81;5029663;28;20259;-68
2023/05/17 01:53:43;;;;;;;6.57;3.67;;;;;;;14.93;66.56;94305.28;5030425;28;20298;-68
2023/05/17 01:56:18;;;;;;;5.35;2.90;;;;;;;14.99;65.93;94296.59;5045847;28;20229;-68
2023/05/17 01:58:45;;;;;;;4.80;3.38;;;;;;;14.98;65.20;94300.22;5028278;28;20201;-68
2023/05/17 02:01:13;;;;;;;4.80;3.20;;;;;;;14.91;65.55;94304.66;5028952;28;20228;-67
2023/05/17 02:03:38;;;;;;;3.53;2.83;;;;;;;14.88;65.65;94312.19;5026669;28;20230;-68
2023/05/17 02:06:04;;;;;;;4.88;3.65;;;;;;;14.85;65.62;94313.38;5023100;28;20218;-67
2023/05/17 02:08:30;;;;;;;6.03;3.33;;;;;;;14.85;66.35;94305.44;5026150;28;20253;-68
2023/05/17 02:10:55;;;;;;;4.65;3.78;;;;;;;14.85;66.41;94312.56;5044720;28;20604;-67
2023/05/17 02:13:21;;;;;;;4.45;3.58;;;;;;;14.84;66.31;94316.25;5030748;28;20189;-67
2023/05/17 02:15:46;;;;;;;3.67;3.00;;;;;;;14.80;65.96;94310.50;5021307;28;20593;-68
2023/05/17 02:18:12;;;;;;;5.28;3.58;;;;;;;14.83;65.51;94306.66;5045329;28;20221;-68
2023/05/17 02:20:37;;;;;;;6.68;4.22;;;;;;;14.79;65.88;94303.59;5027746;28;20218;-68
2023/05/17 02:23:03;;;;;;;6.00;3.05;;;;;;;14.75;66.50;94294.38;5035582;28;20184;-68
2023/05/17 02:25:28;;;;;;;3.83;3.28;;;;;;;14.65;66.74;94294.75;5023270;28;20185;-68
2023/05/17 02:27:53;;;;;;;5.85;3.40;;;;;;;14.68;67.06;94296.19;5022691;28;20393;-68
2023/05/17 02:30:21;;;;;;;3.95;3.28;;;;;;;14.69;66.72;94295.19;5025452;28;20251;-68
2023/05/17 02:32:47;;;;;;;7.07;3.50;;;;;;;14.66;66.91;94296.38;5024217;28;20217;-68
2023/05/17 02:35:12;;;;;;;6.43;3.53;;;;;;;14.62;67.13;94307.53;5027505;28;20221;-68
2023/05/17 02:37:38;;;;;;;5.13;3.50;;;;;;;14.61;67.52;94298.78;5024335;28;20182;-68
2023/05/17 02:40:08;;;;;;;5.80;3.35;;;;;;;14.55;67.94;94304.88;5037632;28;20214;-68
2023/05/17 02:42:37;;;;;;;5.40;4.03;;;;;;;14.58;67.74;94303.66;5025323;28;20690;-68
2023/05/17 02:45:03;;;;;;;6.55;3.40;;;;;;;14.54;67.80;94308.50;5021863;28;20225;-68
2023/05/17 02:47:28;;;;;;;5.57;3.88;;;;;;;14.45;68.33;94310.44;5025935;28;20241;-68
2023/05/17 02:49:54;;;;;;;4.27;3.70;;;;;;;14.50;67.97;94310.69;5038662;28;20182;-68
2023/05/17 02:52:19;;;;;;;3.92;3.63;;;;;;;14.53;67.86;94310.34;5028607;28;20761;-67
2023/05/17 02:54:46;;;;;;;5.88;4.78;;;;;;;14.50;67.28;94323.91;5026354;28;20265;-68
2023/05/17 02:57:12;;;;;;;6.35;5.30;;;;;;;14.53;67.02;94333.34;5025432;28;20281;-67
2023/05/17 02:59:37;;;;;;;5.57;4.95;;;;;;;14.60;66.72;94341.34;5021637;28;20267;-67
2023/05/17 03:02:03;;;;;;;5.38;4.85;;;;;;;14.58;66.23;94335.41;5039965;28;20209;-67
2023/05/17 03:04:28;;;;;;;6.68;5.32;;;;;;;14.58;66.54;94336.22;5025727;28;20256;-67
2023/05/17 03:06:54;;;;;;;7.85;5.15;;;;;;;14.53;66.47;94344.72;5027252;28;20221;-67
2023/05/17 03:09:20;;;;;;;6.60;5.57;;;;;;;14.62;66.30;94347.22;5025076;28;20252;-67
2023/05/17 03:11:46;;;;;;;7.22;5.93;;;;;;;14.61;66.20;94351.72;5023107;28;20230;-67
2023/05/17 03:14:12;;;;;;;8.02;5.80;;;;;;;14.57;66.43;94345.19;5022652;28;20305;-67
2023/05/17 03:16:37;;;;;;;9.68;6.93;;;;;;;14.59;66.12;94340.50;5026080;28;20228;-67
2023/05/17 03:19:03;;;;;;;9.10;6.00;;;;;;;14.66;65.75;94348.50;5027054;28;20245;-67
2023/05/17 03:21:28;;;;;;;7.22;6.07;;;;;;;14.48;66.44;94357.69;5025474;28;20294;-66
2023/05/17 03:23:54;;;;;;;6.97;6.28;;;;;;;14.54;66.44;94366.69;5038769;28;20282;-68
2023/05/17 03:26:19;;;;;;;6.90;5.95;;;;;;;14.58;66.45;94360.03;5019511;28;20228;-65
2023/05/17 03:28:45;;;;;;;9.15;7.18;;;;;;;14.59;66.90;94358.19;5026333;28;20720;-66
2023/05/17 03:31:11;;;;;;;8.68;6.20;;;;;;;14.63;66.66;94354.16;5028910;28;20212;-69
2023/05/17 03:33:36;;;;;;;7.35;5.80;;;;;;;14.64;66.40;94355.78;5027710;28;20213;-68
2023/05/17 03:36:02;;;;;;;8.02;5.03;;;;;;;14.70;66.03;94352.38;5042018;28;20283;-67
2023/05/17 03:38:28;;;;;;;8.57;6.22;;;;;;;14.68;66.27;94351.78;5042580;28;20299;-68
2023/05/17 03:40:53;;;;;;;6.60;5.90;;;;;;;14.69;66.37;94348.91;5020568;28;20207;-66
2023/05/17 03:43:19;;;;;;;7.90;6.75;;;;;;;14.72;66.69;94353.00;5037881;28;20213;-66
2023/05/17 03:45:44;;;;;;;7.47;5.85;;;;;;;14.72;66.48;94353.81;5021632;28;20229;-66
2023/05/17 03:48:10;;;;;;;9.57;6.30;;;;;;;14.76;66.26;94356.91;5026935;28;20226;-66
2023/05/17 03:50:35;;;;;;;7.10;6.20;;;;;;;14.67;66.28;94345.63;5020923;28;20233;-66
2023/05/17 03:53:01;;;;;;;7.47;6.43;;;;;;;14.70;66.35;94355.84;5032074;28;20209;-65
2023/05/17 03:55:26;;;;;;;9.55;7.05;;;;;;;14.67;66.36;94350.94;5040774;28;20276;-66
2023/05/17 03:57:52;;;;;;;9.68;7.47;;;;;;;14.64;66.31;94355.78;5026521;28;20216;-66
2023/05/17 04:00:20;;;;;;;8.32;7.22;;;;;;;14.66;66.44;94359.06;5024985;28;20245;-68
2023/05/17 04:02:50;;;;;;;8.10;6.97;;;;;;;14.68;66.42;94363.16;5019779;28;20225;-67
2023/05/17 04:05:16;;;;;;;8.95;7.07;;;;;;;14.69;66.44;94348.09;5019158;28;20716;-67
2023/05/17 04:07:41;;;;;;;7.80;6.60;;;;;;;14.69;66.47;94363.97;5025557;28;20221;-68
2023/05/17 04:10:08;;;;;;;7.20;6.50;;;;;;;14.76;66.20;94370.97;5024439;28;20224;-68
2023/05/17 04:12:34;;;;;;;8.10;6.05;;;;;;;14.80;65.92;94371.38;5026916;28;20238;-67
2023/05/17 04:15:00;;;;;;;9.02;7.25;;;;;;;14.87;65.66;94374.91;5028534;28;20234;-66
2023/05/17 04:17:26;;;;;;;9.98;7.15;;;;;;;14.86;65.97;94373.28;5023778;28;20245;-67
2023/05/17 04:19:51;;;;;;;8.65;6.88;;;;;;;14.97;65.72;94370.06;5019238;28;20210;-68
2023/05/17 04:22:17;;;;;;;8.75;7.07;;;;;;;14.94;66.06;94365.19;5020424;28;20173;-68
2023/05/17 04:24:42;;;;;;;9.50;7.57;;;;;;;14.95;66.30;94364.16;5019346;28;20218;-68
2023/05/17 04:27:07;;;;;;;9.05;8.15;;;;;;;15.01;66.34;94362.56;5032094;28;20229;-67
2023/05/17 04:29:33;;;;;;;10.05;7.30;;;;;;;14.97;66.78;94359.50;5031373;28;20236;-69
2023/05/17 04:31:58;;;;;;;9.52;7.55;;;;;;;14.98;66.51;94361.09;5015629;28;20229;-67
2023/05/17 04:34:25;;;;;;;8.55;7.20;;;;;;;15.03;66.40;94354.44;5020093;28;20275;-68
2023/05/17 04:36:50;;;;;;;9.52;8.00;;;;;;;15.08;66.34;94357.31;5015674;28;20249;-69
2023/05/17 04:39:18;;;;;;;7.68;6.68;;;;;;;15.07;66.25;94353.81;5028901;28;20245;-68
2023/05/17 04:41:44;;;;;;;11.50;6.88;;;;;;;15.03;65.91;94357.06;5036558;28;20218;-67
2023/05/17 04:44:10;;;;;;;8.77;7.28;;;;;;;15.05;65.97;94355.03;5015345;28;20228;-66
2023/05/17 04:46:36;;;;;;;9.75;7.88;;;;;;;15.16;65.57;94349.19;5020548;28;20220;-68
2023/05/17 04:49:02;;;;;;;9.32;7.78;;;;;;;15.21;65.17;94352.09;5013067;28;20217;-67
2023/05/17 04:51:28;;;;;;;9.52;7.13;;;;;;;15.30;64.96;94361.47;5014617;28;20248;-68
2023/05/17 04:53:54;;;;;;;8.73;7.30;;;;;;;15.27;64.88;94346.00;5018966;28;20308;-67
2023/05/17 04:56:19;;;;;;;8.95;7.18;;;;;;;15.35;64.35;94348.47;5020625;28;20228;-67
2023/05/17 04:58:45;;;;;;;9.35;7.95;;;;;;;15.39;63.51;94352.34;5019425;28;20363;-66
2023/05/17 05:01:10;;;;;;;10.75;7.57;;;;;;;15.42;63.97;94354.63;5014470;28;20186;-66
2023/05/17 05:03:36;;;;;;;8.63;7.45;;;;;;;15.40;64.33;94356.66;5020409;28;20218;-66
2023/05/17 05:06:02;;;;;;;10.82;7.93;;;;;;;15.49;63.88;94359.13;5018641;28;20268;-66
2023/05/17 05:08:28;;;;;;;8.38;7.45;;;;;;;15.49;63.83;94365.22;5028512;28;20569;-66
2023/05/17 05:10:54;;;;;;;9.95;8.52;;;;;;;15.59;63.92;94367.53;5008044;28;20193;-66
2023/05/17 05:13:21;;;;;;;12.65;8.82;;;;;;;15.60;63.68;94366.50;4998521;28;20216;-66
2023/05/17 05:15:46;;;;;;;10.10;7.97;;;;;;;15.57;63.92;94372.19;5015556;28;20225;-68
2023/05/17 05:18:12;;;;;;;10.07;7.88;;;;;;;15.53;64.77;94370.94;5013803;28;20222;-65
2023/05/17 05:20:37;;;;;;;10.95;8.32;;;;;;;15.38;64.80;94363.97;5015750;28;20404;-65
2023/05/17 05:23:04;;;;;;;10.00;8.05;;;;;;;15.47;64.80;94369.09;5010714;28;20193;-66
2023/05/17 05:25:33;;;;;;;11.10;8.02;;;;;;;15.35;64.91;94369.66;5014541;28;20289;-65
2023/05/17 05:27:58;;;;;;;8.80;7.90;;;;;;;15.58;64.09;94363.22;5016287;28;20248;-66
2023/05/17 05:30:24;;;;;;;9.43;7.72;;;;;;;15.82;63.53;94375.16;5022224;28;20229;-66
2023/05/17 05:32:50;;;;;;;10.35;7.78;;;;;;;15.95;62.70;94369.06;5009973;28;20221;-66
2023/05/17 05:35:16;;;;;;;9.20;8.15;;;;;;;16.10;62.33;94375.03;5004903;28;20229;-66
2023/05/17 05:37:42;;;;;;;9.93;8.40;;;;;;;16.15;62.46;94372.59;5020371;28;20181;-66
2023/05/17 05:40:09;;;;;;;9.65;7.53;;;;;;;16.29;61.90;94365.47;5028181;28;20217;-67
2023/05/17 05:42:34;;;;;;;9.20;7.60;;;;;;;16.40;61.71;94366.69;5022529;28;20299;-68
2023/05/17 05:45:00;;;;;;;10.07;7.85;;;;;;;16.53;61.17;94372.00;5023445;28;20225;-67
2023/05/17 05:47:25;;;;;;;7.93;7.07;;;;;;;16.61;60.64;94371.81;5016484;28;20230;-66
2023/05/17 05:49:51;;;;;;;10.15;7.65;;;;;;;16.63;60.36;94372.41;5022089;28;20236;-66
2023/05/17 05:52:16;;;;;;;11.00;7.65;;;;;;;16.72;60.12;94373.03;5020779;28;20189;-66
2023/05/17 05:54:41;;;;;;;7.45;6.55;;;;;;;16.76;59.30;94372.41;5027115;28;20217;-66
2023/05/17 05:57:07;;;;;;;7.10;6.40;;;;;;;16.91;58.90;94379.38;5023149;28;20217;-66
2023/05/17 05:59:32;;;;;;;7.30;6.60;;;;;;;16.93;58.79;94374.66;5023869;28;20217;-67
2023/05/17 06:01:58;;;;;;;9.20;6.55;;;;;;;16.94;58.63;94381.59;5029569;28;20186;-65
2023/05/17 06:04:24;;;;;;;8.65;6.05;;;;;;;16.99;58.32;94387.13;5026529;28;20319;-65
2023/05/17 06:06:49;;;;;;;7.90;6.60;;;;;;;17.04;58.19;94389.97;5019800;28;20236;-65
2023/05/17 06:09:15;;;;;;;7.20;6.18;;;;;;;17.02;58.29;94384.03;5023212;28;20232;-65
2023/05/17 06:11:41;;;;;;;7.35;5.88;;;;;;;17.11;58.11;94389.97;5021068;28;20233;-65
2023/05/17 06:14:07;;;;;;;7.15;6.25;;;;;;;17.15;57.93;94397.31;5023942;28;20400;-65
2023/05/17 06:16:33;;;;;;;7.00;5.97;;;;;;;17.23;57.88;94387.50;5028423;28;20208;-65
2023/05/17 06:18:59;;;;;;;6.03;5.43;;;;;;;17.27;57.74;94391.34;5047299;28;20213;-66
2023/05/17 06:21:24;;;;;;;7.22;5.93;;;;;;;17.37;57.74;94392.56;5044593;28;20324;-67
2023/05/17 06:23:50;;;;;;;8.35;6.07;;;;;;;17.42;57.42;94387.41;5028278;28;20304;-66
2023/05/17 06:26:15;;;;;;;6.97;5.53;;;;;;;17.48;57.39;94387.59;5026116;28;20316;-66
2023/05/17 06:28:41;;;;;;;9.52;5.65;;;;;;;17.45;57.12;94401.31;5028234;28;20201;-66
2023/05/17 06:31:06;;;;;;;7.40;6.00;;;;;;;17.49;57.18;94398.03;5032305;28;20222;-67
2023/05/17 06:33:32;;;;;;;6.85;5.32;;;;;;;17.54;56.71;94400.91;5028003;28;20230;-67
2023/05/17 06:35:57;;;;;;;6.65;5.72;;;;;;;17.56;57.48;94400.66;5015141;28;20261;-68
2023/05/17 06:38:23;;;;;;;7.15;6.15;;;;;;;17.36;58.28;94396.25;5017251;28;20229;-64
2023/05/17 06:40:56;;;;;;;7.03;5.57;;;;;;;17.20;58.76;94392.19;5024756;28;20515;-64
2023/05/17 06:43:21;;;;;;;8.52;5.20;;;;;;;17.14;59.02;94400.19;5022300;28;20196;-67
2023/05/17 06:45:47;;;;;;;6.97;5.20;;;;;;;17.28;58.03;94395.66;5017821;28;20237;-67
2023/05/17 06:48:13;;;;;;;8.07;5.65;;;;;;;17.33;58.32;94391.34;5020319;28;20393;-67
2023/05/17 06:50:38;;;;;;;9.05;5.82;;;;;;;17.56;58.88;94392.69;5028226;28;20309;-66
2023/05/17 06:53:04;;;;;;;5.88;4.82;;;;;;;17.59;58.70;94392.31;5025682;28;20281;-66
2023/05/17 06:55:30;;;;;;;6.25;5.38;;;;;;;17.61;58.36;94396.38;5031087;28;20191;-65
2023/05/17 06:57:55;;;;;;;7.05;5.88;;;;;;;17.66;58.54;94394.91;5028200;28;20241;-65
2023/05/17 07:00:21;;;;;;;7.20;5.60;;;;;;;17.76;58.42;94398.75;5030417;28;20245;-66
2023/05/17 07:02:46;;;;;;;7.65;5.72;;;;;;;17.83;57.80;94393.47;5012604;28;20245;-65
2023/05/17 07:05:12;;;;;;;7.63;5.85;;;;;;;17.84;58.47;94401.22;5026121;28;20240;-65
2023/05/17 07:07:38;;;;;;;8.40;6.13;;;;;;;17.87;58.68;94410.59;5029025;28;20208;-66
2023/05/17 07:10:06;;;;;;;7.97;6.70;;;;;;;17.93;58.32;94409.75;5030136;28;20225;-64
2023/05/17 07:12:32;;;;;;;11.93;6.47;;;;;;;18.04;58.09;94405.59;5030522;28;20222;-66
2023/05/17 07:14:58;;;;;;;6.32;5.72;;;;;;;18.07;57.65;94406.03;5033480;28;20291;-66
2023/05/17 07:17:23;;;;;;;6.55;5.63;;;;;;;17.99;57.65;94397.44;5025808;28;20244;-64
2023/05/17 07:19:49;;;;;;;7.38;5.72;;;;;;;18.02;57.83;94413.81;5031378;28;20189;-66
2023/05/17 07:22:18;;;;;;;7.32;5.80;;;;;;;18.07;57.32;94408.69;5024781;28;20179;-65
2023/05/17 07:24:45;;;;;;;9.48;6.10;;;;;;;18.10;57.22;94414.59;5030034;28;20257;-65
2023/05/17 07:27:11;;;;;;;7.25;6.05;;;;;;;18.11;58.00;94403.75;5032444;28;20239;-66
2023/05/17 07:29:36;;;;;;;7.85;5.18;;;;;;;18.19;57.07;94415.97;5032233;28;20225;-65
2023/05/17 07:32:02;;;;;;;7.28;4.78;;;;;;;18.28;56.98;94415.53;5025878;28;20200;-65
2023/05/17 07:34:29;;;;;;;6.20;5.60;;;;;;;18.24;56.74;94422.28;5025621;28;20185;-69
2023/05/17 07:36:54;;;;;;;7.65;5.28;;;;;;;18.25;56.96;94417.78;5025670;28;20261;-68
2023/05/17 07:39:20;;;;;;;6.22;5.45;;;;;;;18.21;57.24;94416.59;5028583;28;20234;-68
2023/05/17 07:41:45;;;;;;;7.30;5.30;;;;;;;18.36;56.91;94422.41;5023589;28;20228;-68
2023/05/17 07:44:10;;;;;;;7.70;5.32;;;;;;;18.39;56.73;94419.34;5026099;28;20249;-68
2023/05/17 07:46:36;;;;;;;7.85;5.72;;;;;;;18.51;56.63;94420.28;5025039;28;20210;-67
2023/05/17 07:49:01;;;;;;;6.20;5.30;;;;;;;18.55;56.14;94418.00;5026664;28;20278;-67
2023/05/17 07:51:27;;;;;;;6.30;5.70;;;;;;;18.37;56.02;94417.94;5036667;28;20229;-68
2023/05/17 07:53:52;;;;;;;8.52;5.38;;;;;;;18.56;56.08;94418.81;5030705;28;20217;-69
2023/05/17 07:56:17;;;;;;;7.55;5.53;;;;;;;18.49;55.79;94422.31;5029230;28;20287;-69
2023/05/17 07:58:43;;;;;;;6.05;5.18;;;;;;;18.56;55.86;94432.94;5024023;28;20181;-68
2023/05/17 08:01:08;;;;;;;8.45;6.03;;;;;;;18.66;55.51;94421.84;5028973;28;20317;-66
2023/05/17 08:03:35;;;;;;;7.45;5.50;;;;;;;18.80;55.40;94423.38;5026161;28;20221;-67
2023/05/17 08:06:00;;;;;;;6.68;5.22;;;;;;;18.81;55.87;94432.19;5007741;28;20440;-66
2023/05/17 08:08:26;;;;;;;6.45;5.47;;;;;;;18.82;55.37;94426.66;5008042;28;20285;-69
2023/05/17 08:10:51;;;;;;;6.68;5.40;;;;;;;18.84;55.62;94418.44;5010918;28;20197;-67
2023/05/17 08:13:17;;;;;;;6.20;5.32;;;;;;;18.88;56.02;94412.47;5008285;28;20186;-67
2023/05/17 08:15:43;;;;;;;7.25;6.18;;;;;;;18.90;56.20;94418.38;5010870;28;20214;-67
2023/05/17 08:18:08;;;;;;;6.93;5.68;;;;;;;19.05;55.71;94406.56;5010061;28;20210;-69
2023/05/17 08:20:34;;;;;;;8.20;5.18;;;;;;;19.09;55.20;94413.09;5007245;28;20253;-68
2023/05/17 08:22:59;;;;;;;6.43;5.25;;;;;;;19.14;54.61;94408.75;5006639;28;20197;-66
2023/05/17 08:25:24;;;;;;;7.75;5.30;;;;;;;19.26;54.42;94414.16;5009963;28;20240;-68
2023/05/17 08:27:50;;;;;;;6.53;5.72;;;;;;;19.37;54.71;94410.75;5012238;28;20290;-68
2023/05/17 08:30:15;;;;;;;6.32;4.88;;;;;;;19.45;53.52;94409.66;4988145;28;20245;-69
2023/05/17 08:32:41;;;;;;;7.57;5.47;;;;;;;19.55;53.43;94401.16;5010455;28;20314;-66
2023/05/17 08:35:06;;;;;;;7.53;5.32;;;;;;;19.52;53.44;94409.59;5016432;28;20213;-67
2023/05/17 08:37:32;;;;;;;6.32;5.25;;;;;;;19.41;53.94;94405.00;5009831;28;20210;-66
2023/05/17 08:39:57;;;;;;;8.07;5.63;;;;;;;19.39;53.57;94415.88;4997710;28;20222;-65
2023/05/17 08:42:26;;;;;;;7.25;5.03;;;;;;;19.45;53.92;94423.00;5008893;28;20226;-67
2023/05/17 08:44:52;;;;;;;6.70;4.95;;;;;;;19.58;52.71;94406.84;5003391;28;20313;-66
2023/05/17 08:47:28;;;;;;;7.47;5.40;;;;;;;19.56;52.83;94406.25;4999237;28;20227;-67
2023/05/17 08:50:00;;;;;;;7.38;5.05;;;;;;;19.87;52.68;94417.03;5007123;28;20191;-70
2023/05/17 08:52:33;;;;;;;7.05;5.07;;;;;;;19.74;53.18;94408.13;5003597;28;20197;-70
2023/05/17 08:55:02;;;;;;;7.20;5.07;;;;;;;19.70;52.79;94403.47;5002020;28;20260;-71
2023/05/17 08:57:30;;;;;;;5.85;4.47;;;;;;;19.71;52.05;94405.91;5011039;28;20232;-70
2023/05/17 08:59:58;;;;;;;7.63;5.40;;;;;;;19.69;52.81;94402.66;5012401;28;20228;-68
2023/05/17 09:02:25;;;;;;;8.77;6.28;;;;;;;19.67;53.76;94401.25;5008700;28;20236;-67
2023/05/17 09:04:54;;;;;;;8.95;6.63;;;;;;;19.59;54.60;94403.16;5010674;28;20320;-70
2023/05/17 09:07:21;;;;;;;7.72;6.15;;;;;;;19.57;54.27;94409.75;5007928;28;20230;-67
2023/05/17 09:09:49;;;;;;;5.50;4.93;;;;;;;19.70;53.89;94398.13;5019235;28;20308;-69
2023/05/17 09:12:15;;;;;;;8.48;6.20;;;;;;;19.82;53.71;94391.81;5001836;28;20222;-69
2023/05/17 09:14:41;;;;;;;6.70;6.00;;;;;;;19.87;53.63;94390.34;5004463;28;20222;-67
2023/05/17 09:17:07;;;;;;;7.78;5.75;;;;;;;19.94;53.46;94394.56;5003167;28;20254;-69
2023/05/17 09:19:32;;;;;;;8.23;5.90;;;;;;;19.93;53.73;94389.44;5013125;28;20189;-67
2023/05/17 09:22:03;;;;;;;7.57;5.90;;;;;;;19.97;53.12;94388.78;5001272;28;20377;-66
2023/05/17 09:24:29;;;;;;;7.95;5.50;;;;;;;20.06;52.94;94397.28;5003727;28;20225;-65
2023/05/17 09:27:01;;;;;;;8.40;6.18;;;;;;;20.18;52.97;94389.31;5001235;28;20222;-66
2023/05/17 09:29:30;;;;;;;7.35;5.45;;;;;;;20.28;52.52;94402.94;5023700;28;20226;-67
2023/05/17 09:31:55;;;;;;;6.13;4.90;;;;;;;20.33;51.94;94396.91;5001590;28;20187;-69
2023/05/17 09:34:23;;;;;;;6.22;5.35;;;;;;;20.37;51.93;94387.41;5023976;28;20200;-64
2023/05/17 09:36:50;;;;;;;7.40;4.50;;;;;;;20.35;51.60;94384.16;5007260;28;20241;-69
2023/05/17 09:39:16;;;;;;;5.18;4.35;;;;;;;20.41;51.40;94388.59;5006761;28;20228;-67
2023/05/17 09:41:44;;;;;;;6.97;4.97;;;;;;;20.51;51.17;94386.19;5006248;28;20226;-68
2023/05/17 09:44:10;;;;;;;6.25;4.95;;;;;;;20.58;50.63;94397.63;5017328;28;20690;-70
2023/05/17 09:46:40;;;;;;;6.35;5.18;;;;;;;20.63;50.59;94397.72;5005531;28;20198;-76
2023/05/17 09:49:06;;;;;;;5.88;4.97;;;;;;;20.60;51.44;94400.84;5010405;28;20218;-68
2023/05/17 09:51:35;;;;;;;7.55;5.30;;;;;;;20.66;51.50;94397.28;5014540;28;20233;-68
2023/05/17 09:54:01;;;;;;;6.88;4.93;;;;;;;20.75;50.61;94411.13;5005035;28;20230;-67
2023/05/17 09:56:28;;;;;;;7.40;5.82;;;;;;;20.76;50.57;94402.03;5009768;28;20323;-67
2023/05/17 09:58:54;;;;;;;8.82;6.07;;;;;;;20.78;50.46;94399.16;5016204;28;20776;-66
2023/05/17 10:01:21;;;;;;;5.93;5.03;;;;;;;20.85;50.23;94394.50;5023701;28;20187;-67
2023/05/17 10:03:49;;;;;;;6.40;4.90;;;;;;;20.79;50.56;94390.09;4992140;28;20225;-67
2023/05/17 10:06:17;;;;;;;5.85;4.40;;;;;;;20.77;49.90;94386.81;4997279;28;20237;-66
2023/05/17 10:08:48;;;;;;;4.53;3.78;;;;;;;20.58;49.30;94376.25;5000879;28;20230;-65
2023/05/17 10:11:14;;;;;;;5.88;4.07;;;;;;;20.54;50.03;94385.75;4995803;28;20229;-68
2023/05/17 10:13:46;;;;;;;4.65;3.90;;;;;;;20.47;50.06;94382.31;5003395;28;20286;-68
2023/05/17 10:16:12;;;;;;;6.03;4.43;;;;;;;20.38;49.91;94375.69;5002414;28;20226;-68
2023/05/17 10:18:39;;;;;;;4.93;4.00;;;;;;;20.17;50.67;94374.34;5003946;28;20215;-68
2023/05/17 10:21:09;;;;;;;6.50;4.13;;;;;;;20.07;50.81;94368.72;5001829;28;20222;-68
2023/05/17 10:23:37;;;;;;;4.70;3.63;;;;;;;20.02;50.51;94364.91;5003121;28;20253;-66
2023/05/17 10:26:04;;;;;;;4.35;3.95;;;;;;;19.92;51.30;94358.47;5016231;28;20239;-67
2023/05/17 10:28:30;;;;;;;5.90;4.43;;;;;;;19.94;51.04;94346.53;5000718;28;20253;-67
2023/05/17 10:30:57;;;;;;;5.30;3.90;;;;;;;19.92;51.24;94345.94;4999760;28;20210;-66
2023/05/17 10:33:25;;;;;;;4.88;3.95;;;;;;;19.86;51.28;94328.19;5000139;28;20225;-67
2023/05/17 10:35:52;;;;;;;5.05;4.22;;;;;;;19.85;51.74;94323.88;4998509;28;20227;-67
2023/05/17 10:38:18;;;;;;;4.95;4.45;;;;;;;19.91;51.62;94312.28;5003706;28;20219;-66
2023/05/17 10:40:46;;;;;;;5.28;4.20;;;;;;;19.76;51.86;94312.69;4997915;28;20215;-66
2023/05/17 10:43:12;;;;;;;6.13;4.13;;;;;;;19.75;51.79;94295.09;4997270;28;20222;-66
2023/05/17 10:45:37;;;;;;;6.00;4.32;;;;;;;19.82;51.23;94293.13;4997789;28;20229;-67
2023/05/17 10:48:07;;;;;;;6.63;3.78;;;;;;;19.91;51.46;94287.47;5002194;28;20226;-67
2023/05/17 10:50:37;;;;;;;6.07;4.15;;;;;;;19.98;51.41;94272.19;5000219;28;20238;-67
2023/05/17 10:53:08;;;;;;;5.63;4.15;;;;;;;20.02;51.66;94260.00;4999621;28;20197;-66
2023/05/17 10:55:39;;;;;;;5.38;4.22;;;;;;;19.99;51.79;94252.44;5014821;28;20178;-64
2023/05/17 10:58:16;;;;;;;8.13;4.82;;;;;;;20.14;51.76;94250.16;5002467;28;20220;-64
2023/05/17 11:00:47;;;;;;;5.30;4.45;;;;;;;20.19;51.62;94246.81;5002932;28;20232;-67
2023/05/17 11:03:12;;;;;;;5.18;4.20;;;;;;;20.18;50.97;94243.34;4995127;28;20213;-67
2023/05/17 11:05:42;;;;;;;5.75;4.20;;;;;;;20.28;50.90;94248.09;5012086;28;20241;-68
2023/05/17 11:08:15;;;;;;;7.10;4.65;;;;;;;20.24;51.76;94244.28;5019580;28;20228;-68
2023/05/17 11:11:07;;;;;;;6.50;4.95;;;;;;;20.36;51.58;94242.41;5021053;28;20201;-64
2023/05/17 11:13:32;;;;;;;6.00;3.97;;;;;;;20.36;51.05;94250.41;5018003;28;20709;-66
2023/05/17 11:16:07;;;;;;;4.75;4.15;;;;;;;20.22;51.30;94255.16;5018865;28;20218;-66
2023/05/17 11:18:49;;;;;;;5.40;4.30;;;;;;;20.34;51.44;94271.22;5020740;28;20217;-66
2023/05/17 11:21:15;;;;;;;6.50;4.18;;;;;;;20.32;51.35;94281.31;5017800;28;20237;-63
2023/05/17 11:23:45;;;;;;;5.95;4.63;;;;;;;20.13;52.41;94285.91;5037624;28;20210;-72
2023/05/17 11:26:35;;;;;;;6.53;5.15;;;;;;;20.06;52.64;94290.53;5016435;28;20237;-65
2023/05/17 11:29:05;;;;;;;5.18;4.22;;;;;;;20.16;53.20;94301.47;5020442;28;20299;-67
2023/05/17 11:31:33;;;;;;;7.47;5.25;;;;;;;20.39;52.63;94305.22;5016260;28;20221;-64
2023/05/17 11:33:59;;;;;;;8.00;5.60;;;;;;;20.27;52.32;94307.88;5019125;28;20239;-65